sensor_id;sensor_type;location;lat;lon;timestamp;P1;P2;P0
76043;PMS7003;64740;34.694;33.088;2023-06-10T00:01:41;9.2;8.8;6.9
76043;PMS7003;64740;34.694;33.088;2023-06-10T00:06:43;9.6;9.5;7.7
76043;PMS7003;64740;34.694;33.088;2023-06-10T00:11:52;9.9;9.5;7.7
76043;PMS7003;64740;34.694;33.088;2023-06-10T00:17:20;9.8;9.6;7.5
76043;PMS7003;64740;34.694;33.088;2023-06-10T00:21:42;9.7;9.5;7.5
76043;PMS7003;64740;34.694;33.088;2023-06-10T00:26:42;9.3;9.1;7.1
76043;PMS7003;64740;34.694;33.088;2023-06-10T00:32:04;9.6;9.4;7.3
76043;PMS7003;64740;34.694;33.088;2023-06-10T00:37:06;8.9;8.9;7
76043;PMS7003;64740;34.694;33.088;2023-06-10T00:41:48;9.3;9.1;7
76043;PMS7003;64740;34.694;33.088;2023-06-10T00:47:04;9.1;9;7.1
76043;PMS7003;64740;34.694;33.088;2023-06-10T00:51:52;9;9;7.2
76043;PMS7003;64740;34.694;33.088;2023-06-10T00:56:42;9.1;8.9;7
76043;PMS7003;64740;34.694;33.088;2023-06-10T01:01:52;9;9;7.1
76043;PMS7003;64740;34.694;33.088;2023-06-10T01:06:45;8.6;8.5;6.7
76043;PMS7003;64740;34.694;33.088;2023-06-10T01:12:10;8.6;8.4;6.6
76043;PMS7003;64740;34.694;33.088;2023-06-10T01:17:08;9.7;9.4;7
76043;PMS7003;64740;34.694;33.088;2023-06-10T01:21:58;9.3;9.2;7.2
76043;PMS7003;64740;34.694;33.088;2023-06-10T01:27:12;8.8;8.7;7.1
76043;PMS7003;64740;34.694;33.088;2023-06-10T01:32:29;9.2;9.1;7
76043;PMS7003;64740;34.694;33.088;2023-06-10T01:36:54;9;8.9;7
76043;PMS7003;64740;34.694;33.088;2023-06-10T01:41:42;9.4;9.3;7.1
76043;PMS7003;64740;34.694;33.088;2023-06-10T01:47:06;9.5;9.3;7.4
76043;PMS7003;64740;34.694;33.088;2023-06-10T01:51:42;9.2;9;7.2
76043;PMS7003;64740;34.694;33.088;2023-06-10T01:57:08;9.4;9;6.8
76043;PMS7003;64740;34.694;33.088;2023-06-10T02:01:42;8.9;8.8;6.8
76043;PMS7003;64740;34.694;33.088;2023-06-10T02:07:22;9;8.7;6.8
76043;PMS7003;64740;34.694;33.088;2023-06-10T02:12:14;8.7;8.6;6.6
76043;PMS7003;64740;34.694;33.088;2023-06-10T02:16:42;9.8;9.6;7.3
76043;PMS7003;64740;34.694;33.088;2023-06-10T02:22:00;8.8;8.7;6.9
76043;PMS7003;64740;34.694;33.088;2023-06-10T02:27:22;8.5;8.4;6.9
76043;PMS7003;64740;34.694;33.088;2023-06-10T02:31:56;8.6;8.5;6.7
76043;PMS7003;64740;34.694;33.088;2023-06-10T02:37:08;8.4;8.4;6.6
76043;PMS7003;64740;34.694;33.088;2023-06-10T02:42:16;9;8.8;7
76043;PMS7003;64740;34.694;33.088;2023-06-10T02:46:54;8.5;8.4;6.7
76043;PMS7003;64740;34.694;33.088;2023-06-10T02:51:42;8.9;8.8;6.7
76043;PMS7003;64740;34.694;33.088;2023-06-10T02:57:08;8.6;8.5;6.3
76043;PMS7003;64740;34.694;33.088;2023-06-10T03:01:58;8.8;8.5;6.8
76043;PMS7003;64740;34.694;33.088;2023-06-10T03:07:20;8.8;8.5;6.7
76043;PMS7003;64740;34.694;33.088;2023-06-10T03:11:54;8.8;8.6;6.7
76043;PMS7003;64740;34.694;33.088;2023-06-10T03:17:08;8.3;8;6.3
76043;PMS7003;64740;34.694;33.088;2023-06-10T03:22:06;8.9;8.8;6.8
76043;PMS7003;64740;34.694;33.088;2023-06-10T03:27:22;8.7;8.7;6.7
76043;PMS7003;64740;34.694;33.088;2023-06-10T03:31:54;7.7;7.6;5.8
76043;PMS7003;64740;34.694;33.088;2023-06-10T03:37:08;8.3;8;6.5
76043;PMS7003;64740;34.694;33.088;2023-06-10T03:41:46;9.3;9.1;6.8
76043;PMS7003;64740;34.694;33.088;2023-06-10T03:47:22;7.8;7.5;6
76043;PMS7003;64740;34.694;33.088;2023-06-10T03:51:42;8.8;8.7;6.9
76043;PMS7003;64740;34.694;33.088;2023-06-10T03:56:42;7.9;7.7;6.2
76043;PMS7003;64740;34.694;33.088;2023-06-10T04:02:28;8.1;8.1;6.6
76043;PMS7003;64740;34.694;33.088;2023-06-10T04:07:26;8.6;8.6;6.7
76043;PMS7003;64740;34.694;33.088;2023-06-10T04:11:42;8.3;8.2;6.5
76043;PMS7003;64740;34.694;33.088;2023-06-10T04:16:54;9.1;9.1;7.4
76043;PMS7003;64740;34.694;33.088;2023-06-10T04:22:14;9;8.9;6.7
76043;PMS7003;64740;34.694;33.088;2023-06-10T04:27:22;24.5;21.9;15.2
76043;PMS7003;64740;34.694;33.088;2023-06-10T04:31:56;11;10.7;8
76043;PMS7003;64740;34.694;33.088;2023-06-10T04:36:56;9.3;9.1;7.2
76043;PMS7003;64740;34.694;33.088;2023-06-10T04:41:46;9.4;9.4;7.3
76043;PMS7003;64740;34.694;33.088;2023-06-10T04:47:06;9.8;9.7;7.3
76043;PMS7003;64740;34.694;33.088;2023-06-10T04:52:08;9;8.8;6.9
76043;PMS7003;64740;34.694;33.088;2023-06-10T04:56:42;11.5;11.1;8.4
76043;PMS7003;64740;34.694;33.088;2023-06-10T05:01:58;11.6;11.5;9.1
76043;PMS7003;64740;34.694;33.088;2023-06-10T05:07:06;12.8;12.7;10.1
76043;PMS7003;64740;34.694;33.088;2023-06-10T05:11:42;13;12.7;9.9
76043;PMS7003;64740;34.694;33.088;2023-06-10T05:16:52;13.6;13.5;9.9
76043;PMS7003;64740;34.694;33.088;2023-06-10T05:21:54;12.8;12.6;9.6
76043;PMS7003;64740;34.694;33.088;2023-06-10T05:27:22;13.6;13.5;10.3
76043;PMS7003;64740;34.694;33.088;2023-06-10T05:32:16;13.1;13.1;10.1
76043;PMS7003;64740;34.694;33.088;2023-06-10T05:37:08;12.9;12.8;10.5
76043;PMS7003;64740;34.694;33.088;2023-06-10T05:41:42;12.8;12.7;9.8
76043;PMS7003;64740;34.694;33.088;2023-06-10T05:47:24;13;12.7;9.5
76043;PMS7003;64740;34.694;33.088;2023-06-10T05:52:08;13.2;13.1;10.4
76043;PMS7003;64740;34.694;33.088;2023-06-10T05:56:42;14.5;14.3;10.8
76043;PMS7003;64740;34.694;33.088;2023-06-10T06:02:14;16.1;15.9;12.1
76043;PMS7003;64740;34.694;33.088;2023-06-10T06:07:22;15.4;15.3;11.6
76043;PMS7003;64740;34.694;33.088;2023-06-10T06:12:26;15.7;15.5;11.7
76043;PMS7003;64740;34.694;33.088;2023-06-10T06:17:12;12.6;12.4;9.2
76043;PMS7003;64740;34.694;33.088;2023-06-10T06:22:12;16.9;16.5;12.4
76043;PMS7003;64740;34.694;33.088;2023-06-10T06:26:42;18;17.7;13.3
76043;PMS7003;64740;34.694;33.088;2023-06-10T06:32:26;18.5;18.3;13.7
76043;PMS7003;64740;34.694;33.088;2023-06-10T06:37:12;20.3;19.5;14.6
76043;PMS7003;64740;34.694;33.088;2023-06-10T06:42:10;21.9;21.7;15.9
76043;PMS7003;64740;34.694;33.088;2023-06-10T06:46:42;21.8;21.2;16
76043;PMS7003;64740;34.694;33.088;2023-06-10T06:52:26;21.2;20.9;15.3
76043;PMS7003;64740;34.694;33.088;2023-06-10T06:57:00;21.6;21.2;15.6
76043;PMS7003;64740;34.694;33.088;2023-06-10T07:02:10;21.1;20.6;15.1
76043;PMS7003;64740;34.694;33.088;2023-06-10T07:07:28;19.9;19.7;15.1
76043;PMS7003;64740;34.694;33.088;2023-06-10T07:12:26;20.8;20.4;15.1
76043;PMS7003;64740;34.694;33.088;2023-06-10T07:17:14;19.1;18.8;13.7
76043;PMS7003;64740;34.694;33.088;2023-06-10T07:22:10;20.1;19.8;14
76043;PMS7003;64740;34.694;33.088;2023-06-10T07:26:42;19.7;19.4;14.5
76043;PMS7003;64740;34.694;33.088;2023-06-10T07:32:26;20.2;20;14.4
76043;PMS7003;64740;34.694;33.088;2023-06-10T07:36:44;20.1;19.6;14.1
76043;PMS7003;64740;34.694;33.088;2023-06-10T07:42:10;19.7;19.4;14
76043;PMS7003;64740;34.694;33.088;2023-06-10T07:46:58;18.8;18.3;13.4
76043;PMS7003;64740;34.694;33.088;2023-06-10T07:52:28;17.6;17.3;12.3
76043;PMS7003;64740;34.694;33.088;2023-06-10T07:57:02;16.8;16.5;11.9
76043;PMS7003;64740;34.694;33.088;2023-06-10T08:01:58;17.2;17;12.2
76043;PMS7003;64740;34.694;33.088;2023-06-10T08:06:42;13.7;13.4;9.9
76043;PMS7003;64740;34.694;33.088;2023-06-10T08:12:26;12.7;12.5;9.4
76043;PMS7003;64740;34.694;33.088;2023-06-10T08:17:14;12.7;12.4;9.4
76043;PMS7003;64740;34.694;33.088;2023-06-10T08:22:10;14.3;13.6;10
76043;PMS7003;64740;34.694;33.088;2023-06-10T08:26:46;14.3;14;10.4
76043;PMS7003;64740;34.694;33.088;2023-06-10T08:32:28;15.1;14.8;10.8
76043;PMS7003;64740;34.694;33.088;2023-06-10T08:37:14;15.7;15.1;10.7
76043;PMS7003;64740;34.694;33.088;2023-06-10T08:42:15;15.8;15.4;10.9
76043;PMS7003;64740;34.694;33.088;2023-06-10T08:46:58;14.7;14.3;10.4
76043;PMS7003;64740;34.694;33.088;2023-06-10T08:52:28;15.9;15.7;11.3
76043;PMS7003;64740;34.694;33.088;2023-06-10T08:57:14;17.3;17.2;12.5
76043;PMS7003;64740;34.694;33.088;2023-06-10T09:02:10;19.5;18.9;13.5
76043;PMS7003;64740;34.694;33.088;2023-06-10T09:06:46;18.5;18.2;13
76043;PMS7003;64740;34.694;33.088;2023-06-10T09:12:28;19;18.6;13.5
76043;PMS7003;64740;34.694;33.088;2023-06-10T09:16:58;19;18.5;12.9
76043;PMS7003;64740;34.694;33.088;2023-06-10T09:22:12;19.3;18.5;13.1
76043;PMS7003;64740;34.694;33.088;2023-06-10T09:27:06;19.3;18.6;12.8
76043;PMS7003;64740;34.694;33.088;2023-06-10T09:32:28;18.9;18.3;13.1
76043;PMS7003;64740;34.694;33.088;2023-06-10T09:37:20;18.3;18;12.6
76043;PMS7003;64740;34.694;33.088;2023-06-10T09:42:15;19.1;18.8;13.5
76043;PMS7003;64740;34.694;33.088;2023-06-10T09:46:42;19.3;19;13.3
76043;PMS7003;64740;34.694;33.088;2023-06-10T09:52:30;20.6;20;13.9
76043;PMS7003;64740;34.694;33.088;2023-06-10T09:57:16;18.8;18.6;13.3
76043;PMS7003;64740;34.694;33.088;2023-06-10T10:02:13;20.2;19.6;13.8
76043;PMS7003;64740;34.694;33.088;2023-06-10T10:06:54;20.7;20.1;14.1
76043;PMS7003;64740;34.694;33.088;2023-06-10T10:12:26;20.9;20.2;14.5
76043;PMS7003;64740;34.694;33.088;2023-06-10T10:17:14;21.3;20.3;14
76043;PMS7003;64740;34.694;33.088;2023-06-10T10:21:54;21.3;20.7;14
76043;PMS7003;64740;34.694;33.088;2023-06-10T10:26:42;21.1;21.1;14.9
76043;PMS7003;64740;34.694;33.088;2023-06-10T10:32:32;21.9;21.6;15.4
76043;PMS7003;64740;34.694;33.088;2023-06-10T10:37:02;24.1;23.1;16.4
76043;PMS7003;64740;34.694;33.088;2023-06-10T10:42:14;23.9;23.4;16.4
76043;PMS7003;64740;34.694;33.088;2023-06-10T10:46:48;25.5;24.5;17.4
76043;PMS7003;64740;34.694;33.088;2023-06-10T10:52:11;24.8;23.9;16.9
76043;PMS7003;64740;34.694;33.088;2023-06-10T10:57:13;25.4;25;17.3
76043;PMS7003;64740;34.694;33.088;2023-06-10T11:02:32;27.8;26.8;18.7
76043;PMS7003;64740;34.694;33.088;2023-06-10T11:06:51;28.3;27.2;18.2
76043;PMS7003;64740;34.694;33.088;2023-06-10T11:12:10;27.2;26.1;17.5
76043;PMS7003;64740;34.694;33.088;2023-06-10T11:17:18;26.9;26.2;18.1
76043;PMS7003;64740;34.694;33.088;2023-06-10T11:22:30;25.3;24.2;17
76043;PMS7003;64740;34.694;33.088;2023-06-10T11:27:14;26.9;26.3;18.4
76043;PMS7003;64740;34.694;33.088;2023-06-10T11:32:16;24.7;24.5;16.9
76043;PMS7003;64740;34.694;33.088;2023-06-10T11:37:14;24.8;24.2;16.5
76043;PMS7003;64740;34.694;33.088;2023-06-10T11:42:30;24.5;23.5;16.1
76043;PMS7003;64740;34.694;33.088;2023-06-10T11:47:00;25.1;24.5;16.7
76043;PMS7003;64740;34.694;33.088;2023-06-10T11:52:04;24.4;23.4;16.4
76043;PMS7003;64740;34.694;33.088;2023-06-10T11:57:14;25.3;24.7;17.4
76043;PMS7003;64740;34.694;33.088;2023-06-10T12:02:28;26.3;25;17.3
76043;PMS7003;64740;34.694;33.088;2023-06-10T12:06:58;28.6;26.8;17.7
76043;PMS7003;64740;34.694;33.088;2023-06-10T12:11:44;28;27;17.9
76043;PMS7003;64740;34.694;33.088;2023-06-10T12:16:48;25.5;24.6;17.5
76043;PMS7003;64740;34.694;33.088;2023-06-10T12:22:35;27.6;26.3;17.8
76043;PMS7003;64740;34.694;33.088;2023-06-10T12:27:10;23.8;22.4;14.2
76043;PMS7003;64740;34.694;33.088;2023-06-10T12:32:12;28.9;27.4;18.5
76043;PMS7003;64740;34.694;33.088;2023-06-10T12:36:54;27.5;26.6;18
76043;PMS7003;64740;34.694;33.088;2023-06-10T12:42:26;28.2;27.1;18.2
76043;PMS7003;64740;34.694;33.088;2023-06-10T12:46:42;26.7;26.2;18.1
76043;PMS7003;64740;34.694;33.088;2023-06-10T12:52:10;27.5;26.6;18.3
76043;PMS7003;64740;34.694;33.088;2023-06-10T12:57:12;28.1;26.8;17.9
76043;PMS7003;64740;34.694;33.088;2023-06-10T13:02:28;27.2;26.4;18.3
76043;PMS7003;64740;34.694;33.088;2023-06-10T13:07:12;25.7;25.3;17.9
76043;PMS7003;64740;34.694;33.088;2023-06-10T13:12:14;26;24.9;17.5
76043;PMS7003;64740;34.694;33.088;2023-06-10T13:17:10;28.2;27.1;18.5
76043;PMS7003;64740;34.694;33.088;2023-06-10T13:22:26;25.9;25.7;18.1
76043;PMS7003;64740;34.694;33.088;2023-06-10T13:27:28;26.6;25.7;17.9
76043;PMS7003;64740;34.694;33.088;2023-06-10T13:32:16;25.9;25.3;16.9
76043;PMS7003;64740;34.694;33.088;2023-06-10T13:37:14;26.7;26.2;18.2
76043;PMS7003;64740;34.694;33.088;2023-06-10T13:42:28;26;25.5;17.6
76043;PMS7003;64740;34.694;33.088;2023-06-10T13:46:42;25.2;24.4;17
76043;PMS7003;64740;34.694;33.088;2023-06-10T13:51:44;24.8;24;17
76043;PMS7003;64740;34.694;33.088;2023-06-10T13:57:14;24.8;24.1;16.8
76043;PMS7003;64740;34.694;33.088;2023-06-10T14:02:30;24.7;24.4;16.7
76043;PMS7003;64740;34.694;33.088;2023-06-10T14:06:42;23.9;23.5;16.8
76043;PMS7003;64740;34.694;33.088;2023-06-10T14:12:12;24.8;24.3;17.6
76043;PMS7003;64740;34.694;33.088;2023-06-10T14:17:10;23.9;23.5;16.8
76043;PMS7003;64740;34.694;33.088;2023-06-10T14:22:28;27.1;26.3;17.8
76043;PMS7003;64740;34.694;33.088;2023-06-10T14:27:00;24.8;24.2;16.9
76043;PMS7003;64740;34.694;33.088;2023-06-10T14:31:44;24.9;24.4;17
76043;PMS7003;64740;34.694;33.088;2023-06-10T14:37:12;24.2;23.9;16.4
76043;PMS7003;64740;34.694;33.088;2023-06-10T14:42:14;24;23.7;16.3
76043;PMS7003;64740;34.694;33.088;2023-06-10T14:47:00;23;22.8;16.3
76043;PMS7003;64740;34.694;33.088;2023-06-10T14:51:44;24.6;23.9;16.4
76043;PMS7003;64740;34.694;33.088;2023-06-10T14:57:14;23.1;22.6;15.8
76043;PMS7003;64740;34.694;33.088;2023-06-10T15:02:26;23.5;23.3;16.2
76043;PMS7003;64740;34.694;33.088;2023-06-10T15:06:42;24.3;23.6;16.5
76043;PMS7003;64740;34.694;33.088;2023-06-10T15:12:26;23.7;23.2;16
76043;PMS7003;64740;34.694;33.088;2023-06-10T15:17:12;22.8;22.5;16.2
76043;PMS7003;64740;34.694;33.088;2023-06-10T15:22:28;21.7;21.3;14.8
76043;PMS7003;64740;34.694;33.088;2023-06-10T15:27:00;23.2;22.5;16
76043;PMS7003;64740;34.694;33.088;2023-06-10T15:32:26;22;21.4;15.1
76043;PMS7003;64740;34.694;33.088;2023-06-10T15:37:12;20.7;20.2;14.6
76043;PMS7003;64740;34.694;33.088;2023-06-10T15:42:26;21.7;21.2;15.2
76043;PMS7003;64740;34.694;33.088;2023-06-10T15:46:54;22.7;22.3;15.4
76043;PMS7003;64740;34.694;33.088;2023-06-10T15:52:24;21.1;20.2;14.4
76043;PMS7003;64740;34.694;33.088;2023-06-10T15:57:10;21.5;20.9;15.1
76043;PMS7003;64740;34.694;33.088;2023-06-10T16:02:26;21.2;20.7;14.9
76043;PMS7003;64740;34.694;33.088;2023-06-10T16:06:54;22.6;22;15.5
76043;PMS7003;64740;34.694;33.088;2023-06-10T16:12:08;23.1;22.5;14.9
76043;PMS7003;64740;34.694;33.088;2023-06-10T16:17:12;23.3;22.9;16.8
76043;PMS7003;64740;34.694;33.088;2023-06-10T16:22:26;23.1;22.6;15.4
76043;PMS7003;64740;34.694;33.088;2023-06-10T16:27:28;23.3;22.9;15.8
76043;PMS7003;64740;34.694;33.088;2023-06-10T16:32:28;23;22.8;15.7
76043;PMS7003;64740;34.694;33.088;2023-06-10T16:37:08;26.9;26.2;18.1
76043;PMS7003;64740;34.694;33.088;2023-06-10T16:42:26;25.9;25.2;17.4
76043;PMS7003;64740;34.694;33.088;2023-06-10T16:46:54;24.2;23.6;16.4
76043;PMS7003;64740;34.694;33.088;2023-06-10T16:52:28;25.6;24.9;17.8
76043;PMS7003;64740;34.694;33.088;2023-06-10T16:57:14;23.5;22.6;15.9
76043;PMS7003;64740;34.694;33.088;2023-06-10T17:02:26;26.4;25.3;17.5
76043;PMS7003;64740;34.694;33.088;2023-06-10T17:06:42;27.9;26.6;17.7
76043;PMS7003;64740;34.694;33.088;2023-06-10T17:12:28;27.5;26.8;18.5
76043;PMS7003;64740;34.694;33.088;2023-06-10T17:17:12;28.1;27;18.7
76043;PMS7003;64740;34.694;33.088;2023-06-10T17:22:26;26.9;26.4;17.8
76043;PMS7003;64740;34.694;33.088;2023-06-10T17:26:42;29.7;28.6;19.2
76043;PMS7003;64740;34.694;33.088;2023-06-10T17:32:26;27.7;26.9;18.9
76043;PMS7003;64740;34.694;33.088;2023-06-10T17:36:44;27.2;27;18.5
76043;PMS7003;64740;34.694;33.088;2023-06-10T17:42:26;29.3;28.1;19
76043;PMS7003;64740;34.694;33.088;2023-06-10T17:46:42;30.1;28.8;19.3
76043;PMS7003;64740;34.694;33.088;2023-06-10T17:52:30;28.9;27.8;19
76043;PMS7003;64740;34.694;33.088;2023-06-10T17:57:14;30.5;29;19.7
76043;PMS7003;64740;34.694;33.088;2023-06-10T18:02:30;32.5;30.3;20.4
76043;PMS7003;64740;34.694;33.088;2023-06-10T18:06:54;30.5;29.1;19.9
76043;PMS7003;64740;34.694;33.088;2023-06-10T18:12:30;29.1;27.6;19.5
76043;PMS7003;64740;34.694;33.088;2023-06-10T18:17:12;31.6;30;20.3
76043;PMS7003;64740;34.694;33.088;2023-06-10T18:22:18;29.9;28.1;19.8
76043;PMS7003;64740;34.694;33.088;2023-06-10T18:26:54;32.7;30.4;20
76043;PMS7003;64740;34.694;33.088;2023-06-10T18:32:30;28.9;27.9;19.4
76043;PMS7003;64740;34.694;33.088;2023-06-10T18:37:12;28.1;27.3;18.5
76043;PMS7003;64740;34.694;33.088;2023-06-10T18:42:26;29.8;28.5;19.3
76043;PMS7003;64740;34.694;33.088;2023-06-10T18:46:42;30.1;28.9;19.8
76043;PMS7003;64740;34.694;33.088;2023-06-10T18:52:30;29;28;19.4
76043;PMS7003;64740;34.694;33.088;2023-06-10T18:57:02;30.4;29.2;19.7
76043;PMS7003;64740;34.694;33.088;2023-06-10T19:02:26;29.1;27.8;19.1
76043;PMS7003;64740;34.694;33.088;2023-06-10T19:06:42;28.4;27.8;19.4
76043;PMS7003;64740;34.694;33.088;2023-06-10T19:12:28;28.8;27.9;19.3
76043;PMS7003;64740;34.694;33.088;2023-06-10T19:17:12;28.2;27.2;19.2
76043;PMS7003;64740;34.694;33.088;2023-06-10T19:22:26;27.1;26.1;18.6
76043;PMS7003;64740;34.694;33.088;2023-06-10T19:32:26;29.9;28.9;20.1
76043;PMS7003;64740;34.694;33.088;2023-06-10T19:37:08;29.6;28.8;20.2
76043;PMS7003;64740;34.694;33.088;2023-06-10T19:42:18;29.4;28.3;20
76043;PMS7003;64740;34.694;33.088;2023-06-10T19:47:22;29.1;28.4;19.7
76043;PMS7003;64740;34.694;33.088;2023-06-10T19:52:28;26.2;25.4;16.9
76043;PMS7003;64740;34.694;33.088;2023-06-10T19:57:14;29.6;28.4;19.8
76043;PMS7003;64740;34.694;33.088;2023-06-10T20:02:24;27.9;27;18.4
76043;PMS7003;64740;34.694;33.088;2023-06-10T20:07:22;27.4;26.6;19
76043;PMS7003;64740;34.694;33.088;2023-06-10T20:12:30;25.3;25;18.2
76043;PMS7003;64740;34.694;33.088;2023-06-10T20:17:08;27.2;26.5;18.4
76043;PMS7003;64740;34.694;33.088;2023-06-10T20:22:10;28.9;28;19.5
76043;PMS7003;64740;34.694;33.088;2023-06-10T20:26:42;29.1;28;19.7
76043;PMS7003;64740;34.694;33.088;2023-06-10T20:32:28;29.9;28.7;20
76043;PMS7003;64740;34.694;33.088;2023-06-10T20:37:00;31.1;29.3;20.3
76043;PMS7003;64740;34.694;33.088;2023-06-10T20:42:28;33.1;30.6;21
76043;PMS7003;64740;34.694;33.088;2023-06-10T20:47:06;33.1;31.1;21.2
76043;PMS7003;64740;34.694;33.088;2023-06-10T20:52:30;35.2;31.9;21.5
76043;PMS7003;64740;34.694;33.088;2023-06-10T20:57:12;34.2;31.3;21.6
76043;PMS7003;64740;34.694;33.088;2023-06-10T21:02:28;34;31.5;21.6
76043;PMS7003;64740;34.694;33.088;2023-06-10T21:07:22;33.8;31.3;21.4
76043;PMS7003;64740;34.694;33.088;2023-06-10T21:12:26;33.1;30.9;21.4
76043;PMS7003;64740;34.694;33.088;2023-06-10T21:17:10;36.8;32.8;22.4
76043;PMS7003;64740;34.694;33.088;2023-06-10T21:22:12;35.3;32.4;21.6
76043;PMS7003;64740;34.694;33.088;2023-06-10T21:26:42;36.5;33;22.1
76043;PMS7003;64740;34.694;33.088;2023-06-10T21:32:28;37.2;33.3;22.3
76043;PMS7003;64740;34.694;33.088;2023-06-10T21:36:44;38.1;33.9;22.5
76043;PMS7003;64740;34.694;33.088;2023-06-10T21:42:26;39.7;34.8;23
76043;PMS7003;64740;34.694;33.088;2023-06-10T21:47:04;37.4;33.6;22.5
76043;PMS7003;64740;34.694;33.088;2023-06-10T21:52:24;39.5;34.6;22.9
76043;PMS7003;64740;34.694;33.088;2023-06-10T21:57:00;38.6;33.8;22.4
76043;PMS7003;64740;34.694;33.088;2023-06-10T22:02:24;38.7;34.7;22.7
76043;PMS7003;64740;34.694;33.088;2023-06-10T22:06:42;41;36.1;23.6
76043;PMS7003;64740;34.694;33.088;2023-06-10T22:12:26;40.9;35.4;23.5
76043;PMS7003;64740;34.694;33.088;2023-06-10T22:16:54;40.1;35.4;23.2
76043;PMS7003;64740;34.694;33.088;2023-06-10T22:22:24;40.3;35.4;23.3
76043;PMS7003;64740;34.694;33.088;2023-06-10T22:26:42;39.1;34.6;23
76043;PMS7003;64740;34.694;33.088;2023-06-10T22:32:26;37.7;33.5;22.5
76043;PMS7003;64740;34.694;33.088;2023-06-10T22:37:10;36.8;33.3;22.6
76043;PMS7003;64740;34.694;33.088;2023-06-10T22:42:26;36.4;32.6;22
76043;PMS7003;64740;34.694;33.088;2023-06-10T22:46:42;33.1;30.9;20.8
76043;PMS7003;64740;34.694;33.088;2023-06-10T22:52:24;30.5;28.7;19.4
76043;PMS7003;64740;34.694;33.088;2023-06-10T22:57:10;29.1;28.2;19.6
76043;PMS7003;64740;34.694;33.088;2023-06-10T23:02:26;28;27.2;19.1
76043;PMS7003;64740;34.694;33.088;2023-06-10T23:06:42;28.6;27.9;19.5
76043;PMS7003;64740;34.694;33.088;2023-06-10T23:12:24;31.7;30.2;20.7
76043;PMS7003;64740;34.694;33.088;2023-06-10T23:17:10;28.6;27.7;19
76043;PMS7003;64740;34.694;33.088;2023-06-10T23:22:22;25.5;25;17.9
76043;PMS7003;64740;34.694;33.088;2023-06-10T23:26:42;26.7;25.9;17.6
76043;PMS7003;64740;34.694;33.088;2023-06-10T23:32:22;24.5;24.3;17.3
76043;PMS7003;64740;34.694;33.088;2023-06-10T23:37:08;26.2;25.7;18.1
76043;PMS7003;64740;34.694;33.088;2023-06-10T23:42:22;25.2;24.8;17.3
76043;PMS7003;64740;34.694;33.088;2023-06-10T23:46:42;24.4;24.1;17.5
76043;PMS7003;64740;34.694;33.088;2023-06-10T23:52:18;23.9;23.5;16.2
76043;PMS7003;64740;34.694;33.088;2023-06-10T23:57:24;23.6;22.8;16.5
